createdAt,value
2023-04-09T00:02:15.747Z,3.40
2023-04-09T00:04:42.376Z,3.50
2023-04-09T00:07:09.125Z,3.50
2023-04-09T00:09:35.801Z,3.30
2023-04-09T00:12:03.397Z,3.40
2023-04-09T00:14:30.277Z,3.40
2023-04-09T00:16:56.904Z,3.60
2023-04-09T00:19:23.485Z,3.70
2023-04-09T00:21:50.239Z,3.80
2023-04-09T00:24:16.831Z,3.90
2023-04-09T00:26:43.457Z,3.80
2023-04-09T00:29:10.444Z,3.70
2023-04-09T00:31:37.039Z,3.80
2023-04-09T00:34:03.682Z,3.80
2023-04-09T00:36:30.854Z,3.70
2023-04-09T00:38:58.571Z,3.70
2023-04-09T00:41:25.415Z,3.70
2023-04-09T00:43:52.022Z,3.80
2023-04-09T00:46:18.955Z,3.70
2023-04-09T00:48:45.669Z,3.60
2023-04-09T00:51:12.290Z,3.60
2023-04-09T00:53:39.133Z,3.50
2023-04-09T00:56:06.558Z,3.30
2023-04-09T00:58:33.510Z,3.10
2023-04-09T01:01:00.276Z,3.00
2023-04-09T01:03:27.002Z,2.90
2023-04-09T01:06:17.597Z,2.90
2023-04-09T01:09:20.432Z,2.80
2023-04-09T01:12:10.564Z,2.70
2023-04-09T01:15:02.832Z,2.50
2023-04-09T01:17:44.073Z,2.30
2023-04-09T01:20:19.167Z,2.50
2023-04-09T01:23:14.113Z,2.40
2023-04-09T01:26:04.964Z,2.30
2023-04-09T01:28:47.418Z,2.20
2023-04-09T01:31:17.261Z,2.10
2023-04-09T01:33:45.426Z,2.10
2023-04-09T01:36:14.336Z,2.40
2023-04-09T01:38:42.784Z,2.20
2023-04-09T01:41:17.280Z,2.20
2023-04-09T01:43:45.344Z,2.20
2023-04-09T01:46:12.842Z,2.30
2023-04-09T01:48:40.240Z,2.30
2023-04-09T01:51:06.995Z,2.40
2023-04-09T01:53:33.639Z,2.30
2023-04-09T01:56:01.303Z,2.30
2023-04-09T01:58:28.137Z,2.30
2023-04-09T02:01:01.985Z,2.10
2023-04-09T02:03:47.116Z,2.00
2023-04-09T02:06:22.575Z,1.90
2023-04-09T02:08:52.453Z,1.90
2023-04-09T02:11:21.558Z,1.90
2023-04-09T02:13:51.624Z,1.80
2023-04-09T02:16:19.183Z,1.80
2023-04-09T02:18:46.109Z,1.90
2023-04-09T02:21:13.604Z,1.80
2023-04-09T02:23:40.983Z,1.80
2023-04-09T02:26:07.632Z,1.70
2023-04-09T02:28:34.333Z,1.50
2023-04-09T02:31:01.669Z,1.40
2023-04-09T02:33:30.315Z,1.40
2023-04-09T02:35:56.932Z,1.40
2023-04-09T02:38:24.762Z,1.40
2023-04-09T02:40:51.369Z,1.40
2023-04-09T02:43:18.008Z,1.30
2023-04-09T02:45:44.658Z,1.20
2023-04-09T02:48:11.289Z,1.40
2023-04-09T02:50:37.947Z,1.50
2023-04-09T02:53:04.592Z,1.40
2023-04-09T02:55:31.368Z,1.40
2023-04-09T02:57:58.035Z,1.40
2023-04-09T03:00:24.675Z,1.40
2023-04-09T03:02:51.712Z,1.50
2023-04-09T03:05:18.386Z,1.60
2023-04-09T03:07:45.513Z,1.30
2023-04-09T03:10:12.117Z,1.30
2023-04-09T03:12:38.720Z,1.50
2023-04-09T03:15:06.108Z,1.50
2023-04-09T03:17:32.764Z,1.50
2023-04-09T03:19:59.424Z,1.30
2023-04-09T03:22:39.641Z,1.40
2023-04-09T03:25:29.576Z,1.30
2023-04-09T03:27:56.170Z,1.30
2023-04-09T03:30:32.671Z,1.40
2023-04-09T03:33:01.769Z,1.30
2023-04-09T03:35:30.909Z,1.20
2023-04-09T03:37:59.551Z,1.30
2023-04-09T03:40:26.234Z,1.10
2023-04-09T03:42:52.817Z,1.10
2023-04-09T03:45:19.836Z,1.00
2023-04-09T03:47:49.050Z,1.10
2023-04-09T03:50:17.628Z,1.10
2023-04-09T03:52:50.933Z,1.20
2023-04-09T03:55:18.330Z,1.10
2023-04-09T03:57:45.150Z,1.20
2023-04-09T04:00:16.106Z,1.20
2023-04-09T04:03:00.773Z,1.00
2023-04-09T04:05:47.544Z,0.90
2023-04-09T04:08:16.319Z,1.00
2023-04-09T04:10:43.043Z,0.90
2023-04-09T04:13:11.621Z,0.80
2023-04-09T04:15:47.256Z,0.60
2023-04-09T04:18:15.615Z,0.40
2023-04-09T04:20:48.712Z,0.40
2023-04-09T04:23:15.522Z,0.50
2023-04-09T04:26:12.030Z,0.50
2023-04-09T04:28:40.659Z,0.50
2023-04-09T04:31:12.564Z,0.70
2023-04-09T04:33:42.048Z,0.70
2023-04-09T04:36:14.022Z,0.90
2023-04-09T04:38:51.909Z,0.70
2023-04-09T04:41:26.974Z,0.70
2023-04-09T04:44:05.573Z,0.70
2023-04-09T04:46:32.321Z,0.80
2023-04-09T04:48:59.209Z,0.70
2023-04-09T04:51:27.642Z,0.60
2023-04-09T04:54:02.482Z,0.70
2023-04-09T04:56:30.042Z,0.60
2023-04-09T04:59:09.956Z,0.60
2023-04-09T05:01:55.028Z,0.80
2023-04-09T05:04:21.795Z,0.70
2023-04-09T05:06:48.459Z,0.60
2023-04-09T05:09:21.862Z,0.60
2023-04-09T05:11:58.824Z,0.70
2023-04-09T05:14:26.161Z,0.50
2023-04-09T05:16:53.256Z,0.30
2023-04-09T05:19:24.081Z,0.30
2023-04-09T05:21:57.051Z,0.20
2023-04-09T05:24:24.220Z,0.30
2023-04-09T05:26:51.005Z,0.30
2023-04-09T05:29:17.621Z,0.50
2023-04-09T05:31:44.300Z,0.60
2023-04-09T05:34:20.492Z,0.70
2023-04-09T05:36:51.072Z,0.70
2023-04-09T05:39:19.527Z,0.70
2023-04-09T05:41:46.436Z,0.70
2023-04-09T05:44:30.979Z,0.80
2023-04-09T05:47:06.347Z,0.80
2023-04-09T05:49:44.526Z,0.80
2023-04-09T05:52:16.875Z,1.00
2023-04-09T05:54:43.949Z,1.00
2023-04-09T05:57:11.821Z,1.10
2023-04-09T05:59:41.786Z,1.30
2023-04-09T06:02:08.599Z,1.40
2023-04-09T06:04:35.447Z,1.40
2023-04-09T06:07:02.401Z,1.60
2023-04-09T06:09:29.112Z,1.80
2023-04-09T06:11:57.535Z,1.80
2023-04-09T06:14:24.447Z,1.80
2023-04-09T06:16:51.198Z,1.90
2023-04-09T06:19:18.666Z,2.00
2023-04-09T06:21:45.482Z,2.10
2023-04-09T06:24:12.169Z,2.20
2023-04-09T06:26:38.826Z,2.30
2023-04-09T06:29:05.691Z,2.50
2023-04-09T06:31:32.496Z,2.50
2023-04-09T06:33:59.894Z,2.70
2023-04-09T06:36:27.712Z,2.90
2023-04-09T06:38:54.679Z,3.10
2023-04-09T06:41:22.433Z,3.30
2023-04-09T06:43:49.776Z,3.50
2023-04-09T06:46:19.939Z,3.60
2023-04-09T06:48:47.064Z,3.80
2023-04-09T06:51:14.826Z,4.10
2023-04-09T06:53:41.990Z,4.30
2023-04-09T06:56:09.107Z,4.40
2023-04-09T06:58:36.125Z,4.60
2023-04-09T07:01:03.031Z,4.80
2023-04-09T07:03:30.028Z,4.90
2023-04-09T07:05:57.594Z,5.10
2023-04-09T07:08:24.752Z,5.40
2023-04-09T07:10:51.621Z,5.70
2023-04-09T07:13:18.717Z,6.20
2023-04-09T07:15:45.823Z,6.50
2023-04-09T07:18:12.740Z,6.70
2023-04-09T07:20:39.709Z,6.90
2023-04-09T07:23:06.456Z,7.10
2023-04-09T07:25:33.915Z,7.30
2023-04-09T07:28:00.845Z,7.50
2023-04-09T07:30:27.871Z,7.60
2023-04-09T07:32:55.065Z,7.70
2023-04-09T07:35:21.950Z,7.80
2023-04-09T07:37:48.709Z,7.90
2023-04-09T07:40:15.994Z,8.30
2023-04-09T07:42:42.732Z,8.70
2023-04-09T07:45:10.077Z,8.70
2023-04-09T07:47:37.995Z,8.60
2023-04-09T07:50:05.385Z,8.50
2023-04-09T07:52:32.062Z,8.60
2023-04-09T07:54:58.887Z,8.70
2023-04-09T07:57:26.444Z,8.90
2023-04-09T07:59:54.120Z,9.20
2023-04-09T08:02:21.348Z,9.30
2023-04-09T08:04:48.151Z,9.50
2023-04-09T08:07:15.123Z,9.40
2023-04-09T08:09:41.997Z,9.50
2023-04-09T08:12:08.905Z,9.50
2023-04-09T08:14:36.036Z,9.40
2023-04-09T08:17:03.234Z,9.40
2023-04-09T08:19:30.089Z,9.50
2023-04-09T08:21:58.737Z,9.70
2023-04-09T08:24:25.835Z,10.30
2023-04-09T08:26:52.509Z,10.80
2023-04-09T08:29:19.339Z,10.70
2023-04-09T08:31:46.031Z,10.50
2023-04-09T08:34:15.265Z,10.00
2023-04-09T08:36:45.696Z,9.40
2023-04-09T08:39:13.057Z,9.50
2023-04-09T08:41:45.810Z,9.70
2023-04-09T08:44:12.500Z,9.80
2023-04-09T08:46:39.260Z,9.90
2023-04-09T08:49:08.256Z,10.00
2023-04-09T08:51:34.941Z,10.30
2023-04-09T08:54:04.422Z,10.30
2023-04-09T08:56:32.036Z,10.80
2023-04-09T08:58:59.077Z,11.00
2023-04-09T09:01:28.899Z,10.80
2023-04-09T09:04:06.823Z,11.00
2023-04-09T09:06:40.177Z,11.00
2023-04-09T09:09:08.919Z,10.80
2023-04-09T09:11:45.457Z,10.60
2023-04-09T09:14:16.798Z,10.50
2023-04-09T09:17:03.536Z,11.00
2023-04-09T09:19:36.337Z,10.80
2023-04-09T09:22:04.817Z,10.90
2023-04-09T09:24:34.913Z,11.20
2023-04-09T09:27:02.958Z,11.20
2023-04-09T09:29:29.875Z,11.00
2023-04-09T09:31:57.201Z,10.90
2023-04-09T09:34:25.198Z,11.00
2023-04-09T09:36:52.477Z,11.30
2023-04-09T09:39:19.663Z,11.60
2023-04-09T09:41:47.145Z,11.80
2023-04-09T09:44:31.898Z,11.50
2023-04-09T09:46:59.537Z,11.60
2023-04-09T09:49:26.346Z,11.70
2023-04-09T09:51:56.203Z,11.70
2023-04-09T09:54:25.382Z,11.80
2023-04-09T09:56:55.596Z,11.70
2023-04-09T09:59:26.973Z,12.00
2023-04-09T10:02:01.391Z,11.80
2023-04-09T10:04:30.004Z,11.50
2023-04-09T10:06:57.670Z,11.30
2023-04-09T10:09:27.742Z,11.00
2023-04-09T10:11:56.429Z,10.80
2023-04-09T10:14:24.445Z,10.70
2023-04-09T10:16:51.435Z,10.60
2023-04-09T10:19:18.530Z,10.80
2023-04-09T10:22:10.352Z,11.20
2023-04-09T10:24:37.320Z,11.30
2023-04-09T10:27:17.102Z,11.00
2023-04-09T10:29:49.098Z,10.80
2023-04-09T10:32:26.405Z,10.90
2023-04-09T10:34:57.481Z,10.90
2023-04-09T10:37:26.002Z,10.90
2023-04-09T10:39:53.894Z,10.90
2023-04-09T10:42:32.650Z,10.90
2023-04-09T10:45:06.801Z,10.60
2023-04-09T10:47:35.900Z,10.40
2023-04-09T10:50:16.347Z,10.30
2023-04-09T10:52:44.155Z,10.20
2023-04-09T10:55:31.383Z,10.30
2023-04-09T10:57:58.762Z,10.60
2023-04-09T11:00:25.594Z,10.70
2023-04-09T11:03:32.731Z,10.80
2023-04-09T11:06:11.704Z,10.90
2023-04-09T11:08:38.952Z,11.00
2023-04-09T11:11:06.027Z,11.10
2023-04-09T11:13:32.982Z,11.40
2023-04-09T11:16:01.121Z,11.40
2023-04-09T11:18:30.141Z,11.30
2023-04-09T11:21:03.349Z,11.50
2023-04-09T11:23:30.963Z,11.50
2023-04-09T11:25:57.630Z,11.40
2023-04-09T11:28:25.210Z,11.40
2023-04-09T11:30:52.512Z,11.70
2023-04-09T11:33:20.411Z,12.10
2023-04-09T11:35:47.788Z,12.10
2023-04-09T11:38:14.650Z,12.10
2023-04-09T11:40:49.499Z,12.30
2023-04-09T11:43:17.861Z,12.20
2023-04-09T11:45:48.053Z,12.30
2023-04-09T11:48:17.986Z,12.10
2023-04-09T11:50:45.538Z,12.00
2023-04-09T11:53:16.815Z,11.30
2023-04-09T11:55:46.309Z,11.50
2023-04-09T11:58:13.263Z,11.60
2023-04-09T12:00:42.798Z,11.70
2023-04-09T12:03:10.760Z,11.70
2023-04-09T12:05:40.636Z,11.90
2023-04-09T12:08:09.036Z,11.80
2023-04-09T12:10:38.126Z,11.50
2023-04-09T12:13:13.498Z,11.30
2023-04-09T12:15:43.277Z,11.50
2023-04-09T12:18:12.244Z,11.40
2023-04-09T12:20:44.029Z,11.60
2023-04-09T12:23:12.144Z,11.70
2023-04-09T12:25:41.631Z,11.80
2023-04-09T12:28:11.087Z,11.80
2023-04-09T12:30:38.370Z,11.80
2023-04-09T12:33:05.253Z,11.60
2023-04-09T12:35:32.185Z,11.50
2023-04-09T12:38:01.706Z,11.50
2023-04-09T12:40:28.925Z,11.60
2023-04-09T12:42:55.746Z,11.50
2023-04-09T12:45:22.987Z,11.50
2023-04-09T12:47:49.997Z,11.30
2023-04-09T12:50:17.015Z,11.20
2023-04-09T12:52:44.244Z,11.50
2023-04-09T12:55:12.673Z,11.70
2023-04-09T12:57:42.293Z,11.70
2023-04-09T13:00:09.658Z,11.70
2023-04-09T13:02:36.888Z,11.70
2023-04-09T13:05:07.274Z,11.90
2023-04-09T13:07:33.941Z,11.70
2023-04-09T13:10:00.724Z,11.60
2023-04-09T13:12:27.440Z,11.50
2023-04-09T13:14:54.822Z,11.50
2023-04-09T13:17:22.073Z,11.60
2023-04-09T13:19:49.609Z,11.70
2023-04-09T13:22:16.681Z,11.80
2023-04-09T13:24:43.417Z,11.90
2023-04-09T13:27:11.187Z,11.80
2023-04-09T13:29:38.628Z,11.70
2023-04-09T13:32:07.333Z,11.70
2023-04-09T13:34:35.135Z,11.70
2023-04-09T13:37:05.313Z,11.80
2023-04-09T13:39:32.775Z,11.80
2023-04-09T13:42:00.295Z,12.10
2023-04-09T13:44:27.287Z,12.10
2023-04-09T13:46:54.091Z,12.20
2023-04-09T13:49:21.034Z,12.20
2023-04-09T13:51:50.018Z,12.20
2023-04-09T13:54:17.680Z,12.20
2023-04-09T13:56:46.034Z,11.90
2023-04-09T13:59:12.826Z,11.60
2023-04-09T14:01:39.583Z,11.70
2023-04-09T14:04:06.397Z,11.50
2023-04-09T14:06:33.674Z,11.70
2023-04-09T14:09:00.380Z,11.80
2023-04-09T14:11:27.195Z,11.80
2023-04-09T14:13:54.696Z,11.80
2023-04-09T14:16:21.566Z,11.80
2023-04-09T14:18:48.241Z,11.80
2023-04-09T14:21:15.407Z,11.70
2023-04-09T14:23:42.115Z,11.60
2023-04-09T14:26:08.833Z,11.60
2023-04-09T14:28:36.387Z,11.60
2023-04-09T14:31:03.283Z,11.60
2023-04-09T14:33:30.708Z,11.60
2023-04-09T14:35:58.560Z,11.60
2023-04-09T14:38:25.706Z,11.60
2023-04-09T14:40:52.629Z,11.70
2023-04-09T14:43:19.574Z,11.70
2023-04-09T14:45:46.205Z,12.00
2023-04-09T14:48:12.951Z,12.10
2023-04-09T14:50:41.080Z,12.10
2023-04-09T14:53:07.732Z,12.00
2023-04-09T14:55:34.622Z,11.90
2023-04-09T14:58:04.219Z,12.10
2023-04-09T15:00:31.774Z,12.30
2023-04-09T15:02:58.999Z,12.40
2023-04-09T15:05:26.363Z,12.60
2023-04-09T15:07:53.890Z,12.40
2023-04-09T15:10:20.961Z,12.30
2023-04-09T15:12:47.583Z,12.60
2023-04-09T15:15:14.486Z,12.70
2023-04-09T15:17:41.148Z,12.70
2023-04-09T15:20:08.377Z,12.50
2023-04-09T15:22:36.542Z,12.60
2023-04-09T15:25:03.493Z,12.70
2023-04-09T15:27:30.315Z,12.70
2023-04-09T15:29:57.042Z,12.60
2023-04-09T15:32:23.698Z,12.60
2023-04-09T15:34:50.539Z,12.50
2023-04-09T15:37:17.265Z,12.50
2023-04-09T15:39:44.057Z,12.60
2023-04-09T15:42:11.661Z,12.50
2023-04-09T15:44:40.381Z,12.50
2023-04-09T15:47:06.980Z,12.40
2023-04-09T15:49:35.509Z,12.20
2023-04-09T15:52:02.118Z,12.20
2023-04-09T15:54:28.730Z,12.20
2023-04-09T15:56:55.366Z,12.20
2023-04-09T15:59:22.547Z,12.00
2023-04-09T16:01:49.220Z,12.10
2023-04-09T16:04:15.949Z,12.00
2023-04-09T16:06:42.635Z,12.00
2023-04-09T16:09:09.356Z,12.10
2023-04-09T16:11:36.209Z,12.20
2023-04-09T16:14:03.686Z,12.20
2023-04-09T16:16:30.749Z,12.30
2023-04-09T16:18:57.406Z,12.30
2023-04-09T16:21:23.992Z,12.20
2023-04-09T16:23:50.650Z,12.10
2023-04-09T16:26:17.263Z,12.10
2023-04-09T16:28:43.884Z,12.20
2023-04-09T16:31:10.565Z,12.30
2023-04-09T16:33:37.141Z,12.30
2023-04-09T16:36:04.048Z,12.20
2023-04-09T16:38:31.217Z,12.20
2023-04-09T16:40:57.936Z,12.30
2023-04-09T16:43:25.344Z,12.30
2023-04-09T16:45:52.187Z,12.10
2023-04-09T16:48:19.195Z,12.10
2023-04-09T16:50:46.288Z,12.00
2023-04-09T16:53:12.979Z,12.00
2023-04-09T16:55:39.590Z,12.00
2023-04-09T16:58:06.255Z,11.90
2023-04-09T17:00:35.178Z,11.80
2023-04-09T17:03:02.222Z,11.80
2023-04-09T17:05:29.387Z,11.80
2023-04-09T17:07:56.093Z,11.80
2023-04-09T17:10:22.710Z,11.80
2023-04-09T17:12:50.531Z,11.70
2023-04-09T17:15:17.730Z,11.60
2023-04-09T17:17:47.721Z,11.60
2023-04-09T17:20:14.394Z,11.50
2023-04-09T17:22:41.062Z,11.50
2023-04-09T17:25:08.601Z,11.50
2023-04-09T17:27:35.546Z,11.40
2023-04-09T17:30:04.183Z,11.40
2023-04-09T17:32:31.383Z,11.40
2023-04-09T17:34:59.424Z,11.40
2023-04-09T17:37:28.497Z,11.40
2023-04-09T17:39:55.348Z,11.40
2023-04-09T17:42:23.232Z,11.40
2023-04-09T17:44:50.465Z,11.30
2023-04-09T17:47:17.772Z,11.30
2023-04-09T17:49:45.698Z,11.20
2023-04-09T17:52:13.032Z,11.00
2023-04-09T17:54:39.726Z,10.80
2023-04-09T17:57:07.045Z,10.70
2023-04-09T17:59:34.537Z,10.60
2023-04-09T18:02:01.976Z,10.50
2023-04-09T18:04:29.040Z,10.40
2023-04-09T18:06:56.256Z,10.20
2023-04-09T18:09:22.915Z,9.90
2023-04-09T18:11:53.310Z,9.80
2023-04-09T18:14:20.164Z,9.50
2023-04-09T18:16:47.149Z,9.30
2023-04-09T18:19:13.989Z,9.20
2023-04-09T18:21:40.669Z,9.10
2023-04-09T18:24:07.956Z,9.00
2023-04-09T18:26:34.710Z,8.90
2023-04-09T18:29:01.762Z,8.90
2023-04-09T18:31:28.692Z,8.90
2023-04-09T18:33:56.501Z,8.80
2023-04-09T18:36:24.173Z,8.50
2023-04-09T18:38:51.803Z,8.20
2023-04-09T18:41:26.402Z,8.00
2023-04-09T18:43:53.785Z,7.90
2023-04-09T18:46:20.472Z,7.80
2023-04-09T18:48:47.312Z,7.60
2023-04-09T18:51:18.881Z,7.50
2023-04-09T18:53:52.576Z,7.50
2023-04-09T18:56:19.934Z,7.40
2023-04-09T18:58:51.972Z,7.30
2023-04-09T19:01:19.963Z,7.20
2023-04-09T19:03:47.490Z,7.20
2023-04-09T19:06:19.199Z,7.20
2023-04-09T19:08:47.164Z,7.00
2023-04-09T19:11:14.812Z,6.90
2023-04-09T19:13:41.431Z,6.70
2023-04-09T19:16:11.245Z,6.70
2023-04-09T19:18:38.062Z,6.70
2023-04-09T19:21:07.240Z,6.70
2023-04-09T19:23:34.515Z,6.70
2023-04-09T19:26:02.053Z,6.60
2023-04-09T19:28:28.851Z,6.50
2023-04-09T19:30:55.615Z,6.40
2023-04-09T19:33:24.046Z,6.20
2023-04-09T19:35:52.161Z,6.10
2023-04-09T19:38:19.396Z,5.90
2023-04-09T19:40:46.736Z,5.90
2023-04-09T19:43:13.801Z,5.90
2023-04-09T19:45:42.449Z,5.80
2023-04-09T19:48:09.352Z,5.70
2023-04-09T19:50:37.781Z,5.50
2023-04-09T19:53:05.832Z,5.40
2023-04-09T19:55:33.486Z,5.20
2023-04-09T19:58:00.777Z,5.00
2023-04-09T20:00:28.150Z,5.00
2023-04-09T20:02:55.705Z,4.90
2023-04-09T20:05:22.648Z,4.80
2023-04-09T20:07:49.861Z,4.90
2023-04-09T20:10:16.953Z,4.90
2023-04-09T20:12:47.602Z,4.90
2023-04-09T20:15:14.680Z,5.00
2023-04-09T20:17:41.720Z,5.00
2023-04-09T20:20:08.821Z,5.10
2023-04-09T20:22:35.574Z,4.90
2023-04-09T20:25:02.427Z,4.90
2023-04-09T20:27:29.166Z,4.90
2023-04-09T20:29:56.290Z,4.60
2023-04-09T20:32:23.013Z,4.50
2023-04-09T20:34:49.715Z,4.40
2023-04-09T20:37:16.339Z,4.40
2023-04-09T20:39:43.130Z,4.30
2023-04-09T20:42:09.731Z,4.40
2023-04-09T20:44:36.562Z,4.30
2023-04-09T20:47:03.614Z,4.20
2023-04-09T20:49:30.505Z,4.10
2023-04-09T20:51:57.117Z,4.10
2023-04-09T20:54:23.774Z,4.10
2023-04-09T20:56:51.163Z,4.10
2023-04-09T20:59:18.982Z,4.00
2023-04-09T21:01:45.715Z,3.90
2023-04-09T21:04:12.907Z,4.00
2023-04-09T21:06:40.312Z,3.90
2023-04-09T21:09:07.066Z,3.80
2023-04-09T21:11:33.973Z,3.80
2023-04-09T21:14:00.670Z,3.60
2023-04-09T21:16:29.578Z,3.60
2023-04-09T21:18:56.463Z,3.60
2023-04-09T21:21:23.345Z,3.50
2023-04-09T21:23:50.061Z,3.60
2023-04-09T21:26:16.727Z,3.40
2023-04-09T21:28:43.874Z,3.30
2023-04-09T21:31:11.129Z,3.30
2023-04-09T21:33:39.036Z,3.20
2023-04-09T21:36:07.497Z,3.00
2023-04-09T21:38:34.246Z,3.00
2023-04-09T21:41:01.640Z,3.00
2023-04-09T21:43:29.052Z,3.00
2023-04-09T21:45:56.975Z,2.80
2023-04-09T21:48:24.024Z,3.00
2023-04-09T21:50:50.818Z,3.20
2023-04-09T21:53:17.785Z,3.20
2023-04-09T21:55:44.570Z,3.10
2023-04-09T21:58:12.469Z,3.00
2023-04-09T22:00:39.073Z,3.00
2023-04-09T22:03:06.119Z,3.10
2023-04-09T22:05:36.598Z,3.10
2023-04-09T22:08:03.344Z,2.90
2023-04-09T22:10:30.062Z,2.90
2023-04-09T22:12:56.694Z,2.80
2023-04-09T22:15:23.495Z,2.80
2023-04-09T22:17:50.155Z,2.70
2023-04-09T22:20:16.847Z,2.80
2023-04-09T22:22:43.755Z,2.80
2023-04-09T22:25:11.543Z,2.80
2023-04-09T22:27:38.314Z,2.70
2023-04-09T22:30:05.672Z,2.60
2023-04-09T22:32:33.363Z,2.60
2023-04-09T22:35:00.140Z,2.60
2023-04-09T22:37:27.561Z,2.50
2023-04-09T22:39:54.181Z,2.60
2023-04-09T22:42:20.844Z,2.60
2023-04-09T22:44:47.450Z,2.60
2023-04-09T22:47:14.035Z,2.60
2023-04-09T22:49:40.674Z,2.60
2023-04-09T22:52:08.208Z,2.40
2023-04-09T22:54:35.335Z,2.30
2023-04-09T22:57:02.046Z,2.40
2023-04-09T22:59:38.939Z,2.30
2023-04-09T23:02:06.356Z,2.30
2023-04-09T23:04:34.677Z,2.30
2023-04-09T23:07:02.128Z,2.30
2023-04-09T23:09:30.149Z,2.40
2023-04-09T23:11:57.007Z,2.40
2023-04-09T23:14:23.645Z,2.30
2023-04-09T23:16:50.269Z,2.30
2023-04-09T23:19:16.869Z,2.30
2023-04-09T23:21:43.609Z,2.40
2023-04-09T23:24:10.365Z,2.60
2023-04-09T23:26:37.160Z,2.60
2023-04-09T23:29:03.742Z,2.60
2023-04-09T23:31:30.364Z,2.70
2023-04-09T23:33:57.005Z,2.80
2023-04-09T23:36:24.071Z,2.80
2023-04-09T23:38:50.818Z,2.70
2023-04-09T23:41:17.508Z,2.60
2023-04-09T23:43:44.160Z,2.60
2023-04-09T23:46:10.799Z,2.60
2023-04-09T23:48:37.449Z,2.70
2023-04-09T23:51:04.340Z,2.80
2023-04-09T23:53:31.180Z,2.80
2023-04-09T23:58:46.308Z,2.70
